Time;durP1;ratioP1;P1;durP2;ratioP2;P2;SDS_P1;SDS_P2;PMS_P1;PMS_P2;Temp;Humidity;BMP_temperature;BMP_pressure;BME280_temperature;BME280_humidity;BME280_pressure;Samples;Min_cycle;Max_cycle;Signal;HPM_P1;HPM_P2
2022/07/14 00:01:13;;;;;;;8.73;2.20;;;13.60;99.90;;;;;;5049777;28;20083;-76
2022/07/14 00:03:38;;;;;;;10.27;2.10;;;13.60;99.90;;;;;;5048322;28;20057;-75
2022/07/14 00:06:04;;;;;;;12.02;1.98;;;13.50;99.90;;;;;;5049600;28;20052;-74
2022/07/14 00:08:29;;;;;;;8.60;1.88;;;13.50;99.90;;;;;;5049258;28;20500;-75
2022/07/14 00:10:55;;;;;;;8.27;1.80;;;13.50;99.90;;;;;;5048425;28;20053;-75
2022/07/14 00:13:21;;;;;;;9.90;2.15;;;13.50;99.90;;;;;;5047778;28;20128;-75
2022/07/14 00:15:47;;;;;;;8.35;1.88;;;13.50;99.90;;;;;;5050252;28;20108;-74
2022/07/14 00:18:12;;;;;;;5.82;2.10;;;13.40;99.90;;;;;;5050590;28;20041;-75
2022/07/14 00:20:38;;;;;;;11.82;2.60;;;13.40;99.90;;;;;;5049301;28;20128;-76
2022/07/14 00:23:04;;;;;;;11.23;2.17;;;13.30;99.90;;;;;;5047988;28;20086;-75
2022/07/14 00:25:29;;;;;;;11.65;2.10;;;13.30;99.90;;;;;;5050340;28;20044;-75
2022/07/14 00:27:55;;;;;;;8.18;1.88;;;13.20;99.90;;;;;;5049003;28;20084;-76
2022/07/14 00:30:21;;;;;;;11.40;2.65;;;13.10;99.90;;;;;;5050637;28;20492;-74
2022/07/14 00:32:47;;;;;;;7.70;2.17;;;13.10;99.90;;;;;;5051605;28;20476;-75
2022/07/14 00:35:14;;;;;;;8.55;2.30;;;13.10;99.90;;;;;;5053167;28;20067;-74
2022/07/14 00:37:40;;;;;;;7.55;2.40;;;13.00;99.90;;;;;;5052861;28;20056;-76
2022/07/14 00:40:06;;;;;;;10.90;2.65;;;13.10;99.90;;;;;;5052992;28;20693;-75
2022/07/14 00:42:41;;;;;;;9.15;2.40;;;13.00;99.90;;;;;;5051399;28;20610;-75
2022/07/14 00:45:12;;;;;;;6.50;2.38;;;13.00;99.90;;;;;;5051266;28;20499;-74
2022/07/14 00:47:39;;;;;;;12.27;2.72;;;13.00;99.90;;;;;;5053605;28;20057;-74
2022/07/14 00:50:07;;;;;;;5.93;2.05;;;13.10;99.90;;;;;;5052538;28;20064;-76
2022/07/14 00:52:33;;;;;;;8.18;2.67;;;12.90;99.90;;;;;;5051068;28;20049;-75
2022/07/14 00:54:59;;;;;;;9.25;2.63;;;12.90;99.90;;;;;;5052445;28;20052;-74
2022/07/14 00:57:25;;;;;;;13.55;2.80;;;12.90;99.90;;;;;;5053377;28;20388;-75
2022/07/14 00:59:51;;;;;;;9.90;1.95;;;12.80;99.90;;;;;;5050695;28;20083;-74
2022/07/14 01:02:18;;;;;;;16.10;3.65;;;12.80;99.90;;;;;;5052496;28;20072;-75
2022/07/14 01:04:45;;;;;;;7.95;1.58;;;12.80;99.90;;;;;;5051103;28;20056;-75
2022/07/14 01:07:12;;;;;;;3.13;1.65;;;12.80;99.90;;;;;;5034605;28;20094;-75
2022/07/14 01:09:38;;;;;;;11.00;2.15;;;12.70;99.90;;;;;;5051722;28;20061;-74
2022/07/14 01:12:04;;;;;;;5.75;1.92;;;12.70;99.90;;;;;;5051983;28;20127;-75
2022/07/14 01:14:30;;;;;;;6.63;1.90;;;12.70;99.90;;;;;;5052001;28;20128;-74
2022/07/14 01:16:57;;;;;;;6.80;1.88;;;12.80;99.90;;;;;;5050467;28;20048;-74
2022/07/14 01:19:24;;;;;;;5.55;2.00;;;12.60;99.90;;;;;;5053203;28;20098;-75
2022/07/14 01:21:51;;;;;;;8.20;2.45;;;12.70;99.90;;;;;;5052257;28;20127;-77
2022/07/14 01:24:17;;;;;;;5.82;2.08;;;12.50;99.90;;;;;;5052068;28;20491;-75
2022/07/14 01:26:43;;;;;;;8.25;2.55;;;12.50;99.90;;;;;;5050824;28;20056;-74
2022/07/14 01:29:08;;;;;;;5.68;2.10;;;12.50;99.90;;;;;;5052896;28;20049;-75
2022/07/14 01:31:34;;;;;;;5.38;1.98;;;12.70;99.90;;;;;;5051500;28;20045;-74
2022/07/14 01:34:00;;;;;;;5.40;1.90;;;12.40;99.90;;;;;;5050481;28;20048;-74
2022/07/14 01:36:26;;;;;;;10.60;2.28;;;12.40;99.90;;;;;;5051595;28;20045;-75
2022/07/14 01:38:52;;;;;;;10.38;2.53;;;12.40;99.90;;;;;;5051611;28;20515;-74
2022/07/14 01:41:20;;;;;;;8.15;1.90;;;12.20;99.90;;;;;;5050198;28;20041;-74
2022/07/14 01:43:45;;;;;;;6.53;2.03;;;12.20;99.90;;;;;;5051605;28;20087;-75
2022/07/14 01:46:11;;;;;;;8.32;2.40;;;12.20;99.90;;;;;;5049837;28;20080;-75
2022/07/14 01:48:37;;;;;;;4.47;1.80;;;12.20;99.90;;;;;;5050797;28;20136;-75
2022/07/14 01:51:02;;;;;;;9.02;2.33;;;12.30;99.90;;;;;;5050060;28;20059;-74
2022/07/14 01:53:29;;;;;;;7.78;2.22;;;12.20;99.90;;;;;;5049981;28;20041;-74
2022/07/14 01:55:54;;;;;;;6.10;2.00;;;12.10;99.90;;;;;;5050020;28;20049;-75
2022/07/14 01:58:20;;;;;;;10.90;2.60;;;12.00;99.90;;;;;;5052101;28;20047;-75
2022/07/14 02:01:39;;;;;;;7.35;2.40;;;12.00;99.90;;;;;;5051091;28;20053;-75
2022/07/14 02:03:34;;;;;;;4.35;1.90;;;12.20;99.90;;;;;;5049465;28;20057;-74
2022/07/14 02:06:01;;;;;;;7.68;2.00;;;11.80;99.90;;;;;;5051148;28;20132;-74
2022/07/14 02:08:27;;;;;;;4.30;1.85;;;11.70;99.90;;;;;;5051931;28;20041;-73
2022/07/14 02:13:37;;;;;;;7.75;1.80;;;11.60;99.90;;;;;;5050978;28;20049;-75
2022/07/14 02:16:03;;;;;;;4.15;1.90;;;11.60;99.90;;;;;;5052033;28;20493;-74
2022/07/14 02:18:29;;;;;;;8.50;2.33;;;11.60;99.90;;;;;;5050682;28;20468;-75
2022/07/14 02:20:55;;;;;;;5.25;1.80;;;11.70;99.90;;;;;;5050862;28;20095;-74
2022/07/14 02:23:23;;;;;;;5.90;1.67;;;11.50;99.90;;;;;;5049511;28;20084;-75
2022/07/14 02:25:49;;;;;;;9.75;2.40;;;11.50;99.90;;;;;;5050400;28;20087;-75
2022/07/14 02:28:15;;;;;;;6.07;2.40;;;11.50;99.90;;;;;;5049588;28;20044;-74
2022/07/14 02:30:41;;;;;;;9.20;2.75;;;11.50;99.90;;;;;;5051172;28;20088;-75
2022/07/14 02:33:07;;;;;;;10.57;2.65;;;11.70;99.90;;;;;;5050708;28;20068;-73
2022/07/14 02:35:34;;;;;;;7.18;2.30;;;11.40;99.90;;;;;;5050764;28;20060;-74
2022/07/14 02:37:59;;;;;;;8.63;1.90;;;11.50;99.90;;;;;;5051788;28;20044;-74
2022/07/14 02:40:25;;;;;;;6.07;1.75;;;11.50;99.90;;;;;;5050492;28;20051;-74
2022/07/14 02:42:51;;;;;;;6.28;2.10;;;11.20;99.90;;;;;;5050306;28;20052;-74
2022/07/14 02:45:17;;;;;;;2.63;1.38;;;11.20;99.90;;;;;;5051297;28;20045;-74
2022/07/14 02:47:43;;;;;;;3.90;1.50;;;11.20;99.90;;;;;;5050065;28;20057;-74
2022/07/14 02:50:10;;;;;;;2.40;1.40;;;11.10;99.90;;;;;;5048901;28;20671;-74
2022/07/14 02:52:36;;;;;;;5.68;1.60;;;11.10;99.90;;;;;;5049022;28;20399;-74
2022/07/14 02:55:03;;;;;;;5.13;1.63;;;11.00;99.90;;;;;;5051084;28;20102;-74
2022/07/14 02:57:29;;;;;;;5.35;1.40;;;11.00;99.90;;;;;;5050156;28;20128;-75
2022/07/14 02:59:54;;;;;;;3.55;1.55;;;11.00;99.90;;;;;;5050330;28;20080;-75
2022/07/14 03:02:20;;;;;;;6.97;2.10;;;10.90;99.90;;;;;;5048792;28;20080;-74
2022/07/14 03:04:45;;;;;;;3.03;1.40;;;10.90;99.90;;;;;;5049897;28;20048;-73
2022/07/14 03:07:11;;;;;;;3.13;1.17;;;10.90;99.90;;;;;;5048762;28;20093;-73
2022/07/14 03:09:37;;;;;;;4.30;1.77;;;10.90;99.90;;;;;;5048161;28;20057;-72
2022/07/14 03:12:02;;;;;;;2.33;1.30;;;10.90;99.90;;;;;;5050126;28;20045;-73
2022/07/14 03:14:28;;;;;;;3.20;1.50;;;10.90;99.90;;;;;;5049984;28;20052;-74
2022/07/14 03:16:54;;;;;;;4.57;1.48;;;11.00;99.90;;;;;;5049658;28;20045;-74
2022/07/14 03:19:19;;;;;;;4.93;1.50;;;10.80;99.90;;;;;;5049829;28;20106;-74
2022/07/14 03:21:45;;;;;;;4.20;1.40;;;10.80;99.90;;;;;;5050185;28;20048;-73
2022/07/14 03:24:10;;;;;;;5.28;1.40;;;10.80;99.90;;;;;;5048733;28;20049;-73
2022/07/14 03:26:36;;;;;;;4.53;1.60;;;10.70;99.90;;;;;;5050994;28;20083;-74
2022/07/14 03:29:02;;;;;;;2.80;1.38;;;10.80;99.90;;;;;;5048690;28;20399;-73
2022/07/14 03:31:28;;;;;;;7.30;1.92;;;10.60;99.90;;;;;;5049705;28;20045;-73
2022/07/14 03:33:53;;;;;;;5.50;1.90;;;10.60;99.90;;;;;;5048217;28;20049;-74
2022/07/14 03:36:20;;;;;;;3.35;1.63;;;10.50;99.90;;;;;;5049079;28;20049;-74
2022/07/14 03:38:46;;;;;;;3.75;1.25;;;10.50;99.90;;;;;;5028916;28;20049;-74
2022/07/14 03:41:12;;;;;;;2.80;1.30;;;10.40;99.90;;;;;;5029874;28;20041;-73
2022/07/14 03:43:38;;;;;;;6.63;1.48;;;10.40;99.90;;;;;;5030099;28;20099;-74
2022/07/14 03:46:05;;;;;;;5.00;1.45;;;10.70;99.90;;;;;;5029977;28;20060;-73
2022/07/14 03:48:31;;;;;;;3.58;1.63;;;10.40;99.90;;;;;;5045094;28;20550;-74
2022/07/14 03:50:57;;;;;;;4.38;1.88;;;10.40;99.90;;;;;;5048042;28;20080;-72
2022/07/14 03:53:23;;;;;;;4.88;1.92;;;10.30;99.90;;;;;;5048353;28;20084;-73
2022/07/14 03:55:48;;;;;;;2.67;1.58;;;10.20;99.90;;;;;;5049489;28;20120;-74
2022/07/14 03:58:14;;;;;;;3.78;1.55;;;10.20;99.90;;;;;;5050500;28;20666;-74
2022/07/14 04:00:40;;;;;;;1.60;1.00;;;10.20;99.90;;;;;;5048107;28;20087;-74
2022/07/14 04:03:06;;;;;;;2.40;1.50;;;10.20;99.90;;;;;;5049533;28;20505;-74
2022/07/14 04:05:32;;;;;;;2.03;1.30;;;10.20;99.90;;;;;;5051189;28;20098;-73
2022/07/14 04:07:57;;;;;;;6.85;2.35;;;10.30;99.90;;;;;;5053255;28;20384;-73
2022/07/14 04:10:23;;;;;;;5.75;2.58;;;10.30;99.90;;;;;;5053325;28;20056;-73
2022/07/14 04:12:49;;;;;;;6.75;2.10;;;10.40;99.90;;;;;;5053117;28;20122;-74
2022/07/14 04:15:15;;;;;;;8.52;2.30;;;10.50;99.90;;;;;;5053285;28;20048;-74
2022/07/14 04:17:40;;;;;;;5.68;2.90;;;10.50;99.90;;;;;;5051846;28;20056;-73
2022/07/14 04:20:07;;;;;;;4.53;2.08;;;10.50;99.90;;;;;;5052626;28;20591;-74
2022/07/14 04:22:32;;;;;;;5.20;2.15;;;10.60;99.90;;;;;;5053012;28;20053;-74
2022/07/14 04:24:59;;;;;;;5.82;2.00;;;10.60;99.90;;;;;;5051697;28;20049;-73
2022/07/14 04:27:25;;;;;;;5.55;1.65;;;10.60;99.90;;;;;;5052877;28;20052;-73
2022/07/14 04:29:51;;;;;;;7.28;2.10;;;10.60;99.90;;;;;;5053848;28;20408;-74
2022/07/14 04:32:17;;;;;;;6.60;2.10;;;10.60;99.90;;;;;;5052946;28;20490;-73
2022/07/14 04:34:44;;;;;;;7.75;2.00;;;10.60;99.90;;;;;;5051811;28;20053;-73
2022/07/14 04:37:11;;;;;;;7.07;2.60;;;10.60;99.90;;;;;;5052895;28;20049;-73
2022/07/14 04:39:37;;;;;;;6.32;2.53;;;10.70;99.90;;;;;;5053919;28;20120;-73
2022/07/14 04:42:03;;;;;;;6.57;3.00;;;10.80;99.90;;;;;;5052537;28;20051;-74
2022/07/14 04:44:30;;;;;;;8.27;2.88;;;10.80;99.90;;;;;;5051466;28;20072;-73
2022/07/14 04:46:55;;;;;;;7.07;2.70;;;10.80;99.90;;;;;;5052409;28;20045;-73
2022/07/14 04:52:06;;;;;;;12.45;3.70;;;11.00;99.90;;;;;;5053252;28;20488;-74
2022/07/14 04:54:34;;;;;;;9.35;3.50;;;11.20;99.90;;;;;;5052498;28;20049;-74
2022/07/14 04:57:03;;;;;;;6.80;3.13;;;11.20;99.90;;;;;;5052394;28;20045;-73
2022/07/14 04:59:30;;;;;;;10.05;3.67;;;11.20;99.90;;;;;;5052438;28;20074;-75
2022/07/14 05:01:56;;;;;;;14.00;3.22;;;11.30;99.90;;;;;;5053282;28;20045;-73
2022/07/14 05:04:22;;;;;;;7.82;3.05;;;11.40;99.90;;;;;;5051057;28;20621;-74
2022/07/14 05:06:49;;;;;;;12.70;3.47;;;11.60;99.90;;;;;;5052008;28;20124;-73
2022/07/14 05:09:18;;;;;;;9.90;3.33;;;11.50;99.90;;;;;;5052176;28;20459;-74
2022/07/14 05:11:45;;;;;;;11.20;3.70;;;11.70;99.90;;;;;;5052083;28;20052;-74
2022/07/14 05:14:11;;;;;;;8.57;3.35;;;11.70;99.90;;;;;;5052213;28;20041;-74
2022/07/14 05:16:36;;;;;;;9.88;3.38;;;11.80;99.90;;;;;;5051974;28;20049;-75
2022/07/14 05:19:02;;;;;;;8.77;3.22;;;11.90;99.90;;;;;;5050980;28;20133;-74
2022/07/14 05:21:28;;;;;;;10.85;4.03;;;12.00;99.90;;;;;;5052944;28;20426;-74
2022/07/14 05:23:53;;;;;;;7.05;3.42;;;12.10;99.90;;;;;;5051669;28;20051;-74
2022/07/14 05:26:19;;;;;;;8.20;3.30;;;12.20;99.90;;;;;;5051823;28;20443;-73
2022/07/14 05:28:45;;;;;;;10.85;4.10;;;12.30;99.90;;;;;;5051869;28;20049;-73
2022/07/14 05:31:10;;;;;;;9.98;3.40;;;12.40;99.90;;;;;;5052855;28;20689;-73
2022/07/14 05:33:36;;;;;;;8.07;3.40;;;12.60;99.90;;;;;;5051829;28;20080;-75
2022/07/14 05:36:03;;;;;;;14.82;3.95;;;12.70;99.90;;;;;;5050353;28;20053;-75
2022/07/14 05:38:31;;;;;;;9.45;3.47;;;12.70;99.90;;;;;;5051513;28;20080;-74
2022/07/14 05:40:59;;;;;;;10.40;3.50;;;13.30;99.90;;;;;;5050707;28;20098;-74
2022/07/14 05:43:25;;;;;;;9.43;3.33;;;13.00;99.90;;;;;;5050323;28;20064;-74
2022/07/14 05:45:51;;;;;;;8.63;3.35;;;13.50;99.90;;;;;;5051579;28;20037;-73
2022/07/14 05:48:16;;;;;;;10.15;3.40;;;13.20;99.90;;;;;;5051303;28;20052;-74
2022/07/14 05:50:42;;;;;;;12.02;3.53;;;13.40;99.90;;;;;;5051828;28;20041;-73
2022/07/14 05:53:08;;;;;;;8.05;3.50;;;13.50;99.90;;;;;;5049839;28;20124;-74
2022/07/14 05:55:33;;;;;;;8.43;3.30;;;13.60;99.90;;;;;;5049967;28;20045;-74
2022/07/14 05:57:59;;;;;;;8.80;3.83;;;13.90;99.90;;;;;;5051057;28;20052;-75
2022/07/14 06:00:25;;;;;;;9.18;3.40;;;14.00;99.90;;;;;;5052323;28;20132;-75
2022/07/14 06:02:50;;;;;;;10.57;3.53;;;14.20;99.90;;;;;;5051246;28;20102;-75
2022/07/14 06:05:16;;;;;;;7.93;2.70;;;14.60;99.90;;;;;;5050120;28;20137;-74
2022/07/14 06:07:42;;;;;;;10.93;3.28;;;14.40;99.90;;;;;;5049782;28;20053;-76
2022/07/14 06:10:11;;;;;;;7.82;2.58;;;14.50;99.90;;;;;;5051666;28;20052;-75
2022/07/14 06:12:37;;;;;;;8.15;2.70;;;14.60;99.90;;;;;;5049343;28;20053;-75
2022/07/14 06:15:07;;;;;;;7.85;2.30;;;14.90;99.90;;;;;;5051060;28;20049;-75
2022/07/14 06:17:34;;;;;;;8.23;2.17;;;15.00;99.90;;;;;;5049571;28;20606;-74
2022/07/14 06:20:06;;;;;;;9.70;1.80;;;15.20;99.90;;;;;;5051899;28;20476;-75
2022/07/14 06:22:32;;;;;;;11.73;2.00;;;15.40;99.90;;;;;;5049457;28;20048;-75
2022/07/14 06:24:58;;;;;;;5.53;1.63;;;15.40;99.90;;;;;;5050254;28;20488;-75
2022/07/14 06:27:24;;;;;;;8.45;1.48;;;15.50;99.90;;;;;;5048652;28;20062;-74
2022/07/14 06:29:49;;;;;;;13.27;2.00;;;15.70;99.90;;;;;;5049460;28;20045;-74
2022/07/14 06:32:15;;;;;;;9.15;1.30;;;15.80;99.90;;;;;;5051808;28;20412;-74
2022/07/14 06:34:41;;;;;;;9.38;1.30;;;16.00;99.90;;;;;;5050601;28;20512;-74
2022/07/14 06:37:06;;;;;;;8.18;1.20;;;16.10;99.90;;;;;;5049583;28;20411;-77
2022/07/14 06:39:35;;;;;;;9.15;1.30;;;16.20;99.90;;;;;;5065039;28;20483;-75
2022/07/14 06:42:00;;;;;;;7.57;1.30;;;16.50;99.90;;;;;;5070051;28;20076;-75
2022/07/14 06:44:26;;;;;;;7.35;1.60;;;16.60;99.90;;;;;;5057358;28;20697;-76
2022/07/14 06:46:52;;;;;;;7.05;1.58;;;16.80;99.90;;;;;;5051475;28;20056;-76
2022/07/14 06:49:17;;;;;;;6.40;1.02;;;17.00;99.90;;;;;;5060044;28;20135;-73
2022/07/14 06:51:43;;;;;;;7.05;1.38;;;17.00;99.90;;;;;;5052738;28;20044;-74
2022/07/14 06:54:08;;;;;;;11.30;1.88;;;17.30;99.90;;;;;;5065326;28;20045;-76
2022/07/14 06:56:34;;;;;;;5.32;1.20;;;17.50;99.90;;;;;;5069372;28;20052;-74
2022/07/14 06:59:00;;;;;;;6.82;0.60;;;17.80;99.90;;;;;;5066898;28;20044;-75
2022/07/14 07:01:25;;;;;;;7.13;1.17;;;17.90;99.90;;;;;;5050604;28;20068;-76
2022/07/14 07:03:51;;;;;;;7.40;1.00;;;18.10;99.90;;;;;;5028915;28;20045;-74
2022/07/14 07:09:01;;;;;;;7.82;0.95;;;18.40;99.90;;;;;;5030493;28;20060;-77
2022/07/14 07:11:27;;;;;;;4.93;0.75;;;18.50;99.90;;;;;;5065689;28;20411;-77
2022/07/14 07:13:53;;;;;;;8.20;0.90;;;18.70;99.90;;;;;;5070169;28;20121;-75
2022/07/14 07:16:19;;;;;;;7.63;0.90;;;18.90;99.90;;;;;;5068669;28;20572;-76
2022/07/14 07:18:44;;;;;;;7.85;1.30;;;19.10;99.90;;;;;;5069917;28;20082;-75
2022/07/14 07:21:18;;;;;;;7.57;1.08;;;19.10;99.90;;;;;;5067356;28;20087;-76
2022/07/14 07:23:46;;;;;;;4.85;0.80;;;19.00;99.90;;;;;;5070041;28;20093;-75
2022/07/14 07:26:12;;;;;;;7.18;0.95;;;19.20;99.90;;;;;;5069718;28;20086;-76
2022/07/14 07:28:38;;;;;;;5.40;0.60;;;19.30;99.90;;;;;;5069974;28;20058;-75
2022/07/14 07:31:04;;;;;;;5.18;0.82;;;19.10;99.90;;;;;;5068210;28;20040;-76
2022/07/14 07:33:29;;;;;;;7.05;1.48;;;19.30;99.90;;;;;;5069781;28;20119;-77
2022/07/14 07:35:55;;;;;;;10.02;0.60;;;19.60;99.90;;;;;;5069621;28;20047;-73
2022/07/14 07:38:21;;;;;;;7.20;0.80;;;19.80;99.90;;;;;;5069743;28;20052;-77
2022/07/14 07:40:49;;;;;;;7.38;0.88;;;19.90;99.90;;;;;;5068845;28;20054;-75
2022/07/14 07:43:15;;;;;;;5.90;0.80;;;19.90;99.90;;;;;;5072579;28;20047;-75
2022/07/14 07:45:41;;;;;;;5.40;0.50;;;19.80;99.90;;;;;;5073957;28;20040;-75
2022/07/14 07:48:07;;;;;;;3.50;0.63;;;19.70;99.90;;;;;;5071786;28;20056;-78
2022/07/14 07:50:33;;;;;;;9.30;0.90;;;19.70;99.90;;;;;;5073167;28;20419;-76
2022/07/14 07:52:59;;;;;;;3.75;0.57;;;20.00;99.90;;;;;;5070816;28;20053;-76
2022/07/14 07:55:25;;;;;;;4.40;0.65;;;20.20;99.90;;;;;;5064094;28;20051;-75
2022/07/14 07:57:51;;;;;;;3.60;0.60;;;20.40;99.90;;;;;;5051963;28;20550;-75
2022/07/14 08:00:16;;;;;;;6.45;0.90;;;20.50;99.90;;;;;;5053580;28;20161;-78
2022/07/14 08:02:50;;;;;;;5.05;0.70;;;20.60;99.90;;;;;;5053514;28;20053;-75
2022/07/14 08:05:21;;;;;;;7.40;0.68;;;20.50;99.90;;;;;;5051391;28;20077;-74
2022/07/14 08:07:48;;;;;;;9.30;0.80;;;20.60;99.90;;;;;;5053249;28;20057;-75
2022/07/14 08:10:14;;;;;;;5.65;0.68;;;20.70;99.90;;;;;;5052993;28;20059;-74
2022/07/14 08:12:40;;;;;;;4.72;0.70;;;20.90;99.90;;;;;;5051712;28;20053;-75
2022/07/14 08:15:07;;;;;;;5.90;0.68;;;21.00;99.90;;;;;;5053527;28;20044;-75
2022/07/14 08:17:32;;;;;;;6.57;0.80;;;21.10;99.90;;;;;;5053024;28;20041;-75
2022/07/14 08:19:58;;;;;;;8.35;0.80;;;21.10;99.90;;;;;;5053197;28;20132;-76
2022/07/14 08:22:25;;;;;;;3.83;0.55;;;21.20;99.90;;;;;;5051884;28;20057;-74
2022/07/14 08:24:51;;;;;;;3.30;0.50;;;21.00;99.90;;;;;;5051380;28;20132;-75
2022/07/14 08:27:17;;;;;;;5.65;0.57;;;20.80;99.90;;;;;;5053093;28;20040;-74
2022/07/14 08:29:43;;;;;;;5.97;0.70;;;20.80;99.90;;;;;;5052962;28;20079;-76
2022/07/14 08:32:08;;;;;;;3.00;0.50;;;20.90;99.90;;;;;;5056519;28;20032;-73
2022/07/14 08:34:34;;;;;;;4.88;0.63;;;21.00;99.90;;;;;;5069345;28;20131;-75
2022/07/14 08:37:00;;;;;;;3.55;0.50;;;21.00;99.90;;;;;;5071933;28;20082;-76
2022/07/14 08:39:28;;;;;;;6.25;0.68;;;21.30;99.90;;;;;;5072883;28;20048;-76
2022/07/14 08:41:54;;;;;;;3.58;0.50;;;21.40;99.90;;;;;;5070980;28;20098;-76
2022/07/14 08:44:21;;;;;;;2.47;0.50;;;21.20;99.90;;;;;;5059275;28;20054;-76
2022/07/14 08:46:47;;;;;;;2.40;0.45;;;21.30;99.90;;;;;;5053604;28;20049;-77
2022/07/14 08:49:14;;;;;;;2.38;0.30;;;21.20;99.90;;;;;;5052259;28;20134;-75
2022/07/14 08:51:42;;;;;;;4.63;0.50;;;21.00;99.90;;;;;;5052190;28;20040;-76
2022/07/14 08:54:11;;;;;;;5.32;0.52;;;21.00;99.90;;;;;;5063434;28;20087;-77
2022/07/14 08:56:38;;;;;;;4.68;0.88;;;21.00;99.90;;;;;;5071122;28;20442;-76
2022/07/14 08:59:04;;;;;;;6.18;0.55;;;21.20;99.90;;;;;;5072299;28;20073;-77
2022/07/14 09:01:30;;;;;;;2.40;0.40;;;21.10;99.90;;;;;;5072291;28;20491;-76
2022/07/14 09:03:56;;;;;;;2.95;0.70;;;21.10;99.90;;;;;;5057238;28;20125;-76
2022/07/14 09:06:53;;;;;;;3.50;0.50;;;20.90;99.90;;;;;;5052305;28;20518;-76
2022/07/14 09:09:24;;;;;;;6.00;0.60;;;21.00;99.90;;;;;;5052133;28;20041;-76
2022/07/14 09:12:09;;;;;;;3.08;0.50;;;21.10;99.90;;;;;;5052528;28;20049;-77
2022/07/14 09:17:27;;;;;;;5.00;0.60;;;21.40;99.90;;;;;;5058754;28;20434;-76
2022/07/14 09:20:08;;;;;;;4.60;0.50;;;21.40;99.90;;;;;;5070641;28;20131;-75
2022/07/14 09:22:39;;;;;;;4.10;0.50;;;21.30;99.90;;;;;;5068614;28;20082;-76
2022/07/14 09:25:12;;;;;;;6.63;0.80;;;21.40;99.90;;;;;;5043914;28;20041;-76
2022/07/14 09:27:38;;;;;;;2.35;0.40;;;21.40;99.90;;;;;;5032161;28;20038;-76
2022/07/14 09:30:06;;;;;;;3.72;0.47;;;21.30;99.90;;;;;;5047308;28;20056;-76
2022/07/14 09:32:47;;;;;;;3.15;0.65;;;21.40;99.90;;;;;;5051704;28;20041;-77
2022/07/14 09:35:15;;;;;;;5.35;0.60;;;21.40;99.90;;;;;;5062293;28;20146;-77
2022/07/14 09:37:42;;;;;;;4.82;0.50;;;21.50;99.90;;;;;;5070013;28;20499;-77
2022/07/14 09:40:15;;;;;;;1.50;0.35;;;21.30;99.90;;;;;;5071372;28;20086;-76
2022/07/14 09:42:59;;;;;;;3.35;0.30;;;21.40;99.90;;;;;;5069683;28;20111;-75
2022/07/14 09:45:36;;;;;;;5.25;0.57;;;21.40;99.90;;;;;;5070987;28;20556;-75
2022/07/14 09:48:07;;;;;;;5.35;0.60;;;21.60;99.90;;;;;;5069624;28;20590;-76
2022/07/14 09:50:44;;;;;;;3.20;0.60;;;21.40;99.90;;;;;;5071051;28;20076;-75
2022/07/14 09:53:30;;;;;;;4.88;0.57;;;21.50;99.90;;;;;;5069747;28;20051;-76
2022/07/14 09:56:03;;;;;;;3.78;0.75;;;21.70;99.90;;;;;;5071666;28;20438;-76
2022/07/14 09:58:32;;;;;;;2.10;0.47;;;21.60;99.90;;;;;;5069705;28;20504;-75
2022/07/14 10:01:02;;;;;;;2.42;0.50;;;21.30;99.90;;;;;;5071119;28;20094;-75
2022/07/14 10:03:30;;;;;;;4.55;0.60;;;21.40;99.90;;;;;;5057595;28;20481;-75
2022/07/14 10:05:58;;;;;;;2.40;0.30;;;21.50;99.90;;;;;;5071903;28;20103;-76
2022/07/14 10:08:26;;;;;;;3.08;0.60;;;21.40;99.90;;;;;;5050558;28;20036;-77
2022/07/14 10:10:53;;;;;;;2.97;0.43;;;21.40;99.90;;;;;;5050425;28;20053;-75
2022/07/14 10:13:19;;;;;;;1.90;0.40;;;21.40;99.90;;;;;;5050110;28;20044;-78
2022/07/14 10:15:49;;;;;;;4.07;0.80;;;21.50;99.90;;;;;;5050842;28;20045;-75
2022/07/14 10:18:15;;;;;;;3.30;0.60;;;21.70;99.90;;;;;;5055137;28;20055;-75
2022/07/14 10:20:44;;;;;;;4.20;0.50;;;21.60;99.90;;;;;;5031244;28;20033;-74
2022/07/14 10:23:09;;;;;;;3.88;0.50;;;21.70;99.90;;;;;;5037791;28;20040;-75
2022/07/14 10:25:35;;;;;;;3.90;0.65;;;21.70;99.90;;;;;;5050925;28;20119;-76
2022/07/14 10:28:01;;;;;;;2.35;0.30;;;21.70;99.90;;;;;;5049405;28;20041;-78
2022/07/14 10:31:03;;;;;;;3.63;0.40;;;21.70;99.90;;;;;;5048935;28;20052;-76
2022/07/14 10:33:29;;;;;;;2.95;0.80;;;21.60;99.90;;;;;;5050542;28;20041;-74
2022/07/14 10:36:15;;;;;;;3.83;0.38;;;21.70;99.90;;;;;;5049405;28;20060;-76
2022/07/14 10:38:53;;;;;;;2.42;0.45;;;22.30;99.90;;;;;;5050313;28;20454;-79
2022/07/14 10:41:49;;;;;;;7.60;0.55;;;22.50;99.90;;;;;;5012793;28;20063;-76
2022/07/14 10:44:22;;;;;;;6.18;1.10;;;22.30;99.90;;;;;;5030839;28;20125;-75
2022/07/14 10:46:51;;;;;;;4.07;0.77;;;22.30;99.90;;;;;;5044349;28;20048;-77
2022/07/14 10:49:18;;;;;;;7.63;0.70;;;22.10;99.90;;;;;;5046235;28;20044;-76
2022/07/14 10:51:51;;;;;;;2.28;0.50;;;21.90;99.90;;;;;;5070244;28;20127;-75
2022/07/14 10:54:29;;;;;;;3.15;0.60;;;21.60;99.90;;;;;;5070440;28;20115;-76
2022/07/14 10:57:12;;;;;;;3.95;0.43;;;21.40;99.90;;;;;;5054849;28;20392;-75
2022/07/14 10:59:39;;;;;;;3.53;0.73;;;21.40;99.90;;;;;;5055237;28;20083;-75
2022/07/14 11:02:14;;;;;;;3.08;0.50;;;21.30;99.90;;;;;;5068627;28;20049;-77
2022/07/14 11:07:32;;;;;;;5.03;0.40;;;21.20;99.90;;;;;;5067007;28;20053;-74
2022/07/14 11:09:58;;;;;;;2.85;0.47;;;21.20;99.90;;;;;;5070018;28;20140;-76
2022/07/14 11:12:24;;;;;;;3.72;0.40;;;21.30;99.90;;;;;;5070105;28;20163;-74
2022/07/14 11:14:49;;;;;;;2.45;0.50;;;21.30;99.90;;;;;;5068496;28;20051;-74
2022/07/14 11:17:34;;;;;;;5.03;0.52;;;21.20;99.90;;;;;;5067644;28;20040;-72
2022/07/14 11:20:00;;;;;;;;;;;21.10;99.90;;;;;;5069034;28;20049;-75
2022/07/14 11:22:25;;;;;;;5.85;0.60;;;21.20;99.90;;;;;;5068684;28;19927;-75
2022/07/14 11:24:56;;;;;;;4.65;0.60;;;21.30;99.90;;;;;;5068990;28;20044;-74
2022/07/14 11:27:47;;;;;;;6.45;0.80;;;21.40;99.90;;;;;;5069931;28;20399;-75
2022/07/14 11:30:18;;;;;;;4.40;0.40;;;21.70;99.90;;;;;;5069915;28;20056;-74
2022/07/14 11:32:43;;;;;;;4.53;0.77;;;21.90;99.90;;;;;;5068305;28;20047;-73
2022/07/14 11:37:57;;;;;;;5.32;0.52;;;22.20;99.90;;;;;;5068647;28;20478;-75
2022/07/14 11:40:48;;;;;;;4.15;0.65;;;22.50;99.90;;;;;;5068916;28;20052;-74
2022/07/14 11:43:29;;;;;;;5.35;0.50;;;22.90;99.90;;;;;;5069942;28;20136;-80
2022/07/14 11:46:03;;;;;;;4.00;0.68;;;23.10;99.90;;;;;;5068803;28;20132;-76
2022/07/14 11:48:32;;;;;;;4.53;0.52;;;23.00;99.90;;;;;;5069363;28;20483;-75
2022/07/14 11:51:19;;;;;;;1.65;0.40;;;23.00;99.10;;;;;;5070093;28;20075;-76
2022/07/14 11:53:45;;;;;;;3.78;0.50;;;23.30;99.90;;;;;;5068884;28;20044;-76
2022/07/14 11:56:12;;;;;;;5.15;0.40;;;23.50;99.90;;;;;;5069972;28;20056;-75
2022/07/14 11:58:39;;;;;;;5.07;0.75;;;23.80;99.90;;;;;;5069816;28;20056;-75
2022/07/14 12:01:06;;;;;;;4.78;0.75;;;23.80;99.20;;;;;;5068354;28;20060;-76
2022/07/14 12:03:32;;;;;;;5.70;0.65;;;23.80;98.40;;;;;;5069368;28;20545;-75
2022/07/14 12:06:00;;;;;;;4.18;0.60;;;23.90;98.90;;;;;;5070016;28;20053;-76
2022/07/14 12:08:31;;;;;;;5.10;0.52;;;23.90;99.10;;;;;;5069875;28;20036;-76
2022/07/14 12:11:08;;;;;;;2.92;0.60;;;23.50;97.60;;;;;;5057923;28;20398;-77
2022/07/14 12:13:47;;;;;;;3.25;0.57;;;23.50;98.90;;;;;;5049717;28;20044;-77
2022/07/14 12:16:13;;;;;;;3.78;0.60;;;23.30;98.70;;;;;;5048370;28;20080;-75
2022/07/14 12:18:39;;;;;;;5.63;1.02;;;23.10;98.50;;;;;;5049477;28;20448;-75
2022/07/14 12:21:05;;;;;;;2.67;0.52;;;22.90;98.80;;;;;;5050088;28;20044;-75
2022/07/14 12:23:31;;;;;;;5.90;0.68;;;22.80;99.30;;;;;;5046552;28;20053;-75
2022/07/14 12:26:02;;;;;;;4.38;0.93;;;22.70;99.30;;;;;;5049887;28;20132;-74
2022/07/14 12:28:28;;;;;;;4.30;0.60;;;22.50;99.10;;;;;;5051819;28;20053;-75
2022/07/14 12:30:57;;;;;;;3.88;0.55;;;22.40;99.70;;;;;;5052031;28;20049;-76
2022/07/14 12:33:25;;;;;;;5.50;0.50;;;22.60;99.90;;;;;;5054124;28;20572;-74
2022/07/14 12:35:54;;;;;;;3.65;1.10;;;22.40;99.20;;;;;;5049237;28;20049;-76
2022/07/14 12:38:21;;;;;;;5.22;0.50;;;22.30;99.40;;;;;;5051455;28;20476;-80
2022/07/14 12:40:52;;;;;;;4.80;0.90;;;22.30;99.50;;;;;;5051389;28;20045;-76
2022/07/14 12:43:19;;;;;;;7.75;1.00;;;21.90;99.60;;;;;;5052599;28;20102;-76
2022/07/14 12:46:09;;;;;;;4.28;0.90;;;21.80;99.90;;;;;;5050383;28;20086;-76
2022/07/14 12:48:55;;;;;;;6.15;0.80;;;21.80;99.80;;;;;;5049381;28;20079;-74
2022/07/14 12:51:25;;;;;;;9.60;0.70;;;21.90;99.90;;;;;;5051353;28;20063;-73
2022/07/14 12:54:05;;;;;;;2.08;0.40;;;22.20;99.90;;;;;;5052926;28;20037;-75
2022/07/14 12:56:51;;;;;;;5.60;0.82;;;22.00;99.90;;;;;;5051646;28;20044;-74
2022/07/14 12:59:21;;;;;;;7.45;0.73;;;22.00;99.90;;;;;;5050074;28;20049;-73
2022/07/14 13:01:55;;;;;;;4.97;0.63;;;22.20;99.90;;;;;;5050052;28;20056;-75
2022/07/14 13:04:49;;;;;;;5.00;0.57;;;22.20;99.90;;;;;;5050167;28;20086;-75
2022/07/14 13:07:29;;;;;;;3.08;0.60;;;22.20;99.80;;;;;;5028675;28;20050;-74